createdAt,value
2023-09-30T00:02:04.112Z,75.70
2023-09-30T00:04:32.467Z,75.70
2023-09-30T00:07:00.911Z,75.80
2023-09-30T00:09:29.215Z,75.80
2023-09-30T00:11:57.463Z,75.70
2023-09-30T00:14:25.721Z,75.60
2023-09-30T00:16:55.445Z,75.70
2023-09-30T00:19:24.278Z,75.80
2023-09-30T00:21:52.665Z,75.90
2023-09-30T00:24:21.015Z,75.90
2023-09-30T00:26:50.470Z,76.60
2023-09-30T00:29:19.029Z,76.00
2023-09-30T00:31:47.249Z,75.90
2023-09-30T00:34:16.807Z,75.90
2023-09-30T00:36:45.241Z,75.90
2023-09-30T00:39:13.657Z,75.90
2023-09-30T00:41:42.084Z,76.00
2023-09-30T00:44:10.428Z,76.00
2023-09-30T00:46:42.581Z,76.00
2023-09-30T00:49:12.087Z,76.10
2023-09-30T00:51:42.122Z,76.10
2023-09-30T00:54:10.965Z,76.10
2023-09-30T00:56:46.009Z,76.00
2023-09-30T00:59:15.280Z,76.00
2023-09-30T01:01:44.499Z,75.90
2023-09-30T01:04:13.576Z,76.00
2023-09-30T01:06:43.352Z,76.00
2023-09-30T01:09:13.780Z,76.10
2023-09-30T01:11:42.445Z,76.10
2023-09-30T01:14:26.012Z,76.10
2023-09-30T01:16:54.270Z,76.30
2023-09-30T01:19:25.093Z,76.20
2023-09-30T01:21:57.440Z,76.20
2023-09-30T01:24:26.242Z,76.20
2023-09-30T01:26:55.018Z,76.10
2023-09-30T01:29:23.531Z,76.10
2023-09-30T01:31:52.053Z,76.20
2023-09-30T01:34:20.865Z,76.30
2023-09-30T01:36:49.127Z,76.20
2023-09-30T01:39:18.826Z,76.20
2023-09-30T01:41:47.497Z,76.00
2023-09-30T01:44:16.031Z,76.10
2023-09-30T01:46:44.827Z,76.10
2023-09-30T01:49:13.122Z,76.10
2023-09-30T01:51:41.395Z,76.30
2023-09-30T01:54:09.707Z,76.30
2023-09-30T01:56:39.575Z,76.30
2023-09-30T01:59:07.818Z,76.50
2023-09-30T02:01:36.269Z,76.40
2023-09-30T02:04:06.767Z,76.50
2023-09-30T02:06:35.855Z,76.40
2023-09-30T02:09:05.673Z,76.30
2023-09-30T02:11:33.885Z,76.20
2023-09-30T02:14:04.251Z,76.20
2023-09-30T02:16:31.768Z,76.30
2023-09-30T02:19:01.463Z,76.30
2023-09-30T02:21:29.966Z,76.30
2023-09-30T02:23:58.622Z,76.40
2023-09-30T02:26:28.526Z,76.20
2023-09-30T02:28:57.175Z,77.00
2023-09-30T02:31:26.935Z,76.50
2023-09-30T02:33:55.300Z,76.30
2023-09-30T02:36:23.721Z,76.30
2023-09-30T02:38:52.021Z,76.40
2023-09-30T02:41:20.334Z,76.40
2023-09-30T02:43:48.712Z,76.40
2023-09-30T02:46:17.026Z,76.40
2023-09-30T02:48:46.763Z,76.40
2023-09-30T02:51:16.089Z,76.50
2023-09-30T02:53:44.769Z,76.50
2023-09-30T02:56:13.018Z,76.40
2023-09-30T02:58:41.561Z,76.20
2023-09-30T03:01:11.414Z,76.00
2023-09-30T03:03:41.019Z,76.30
2023-09-30T03:06:11.621Z,76.40
2023-09-30T03:08:40.154Z,76.60
2023-09-30T03:11:08.753Z,76.50
2023-09-30T03:13:37.044Z,76.60
2023-09-30T03:16:06.451Z,76.50
2023-09-30T03:18:34.856Z,76.50
2023-09-30T03:21:09.602Z,76.60
2023-09-30T03:23:39.757Z,76.50
2023-09-30T03:26:11.051Z,76.40
2023-09-30T03:28:39.882Z,76.40
2023-09-30T03:31:08.724Z,76.50
2023-09-30T03:33:37.363Z,76.40
2023-09-30T03:36:05.804Z,76.40
2023-09-30T03:38:34.054Z,76.20
2023-09-30T03:41:03.793Z,76.30
2023-09-30T03:43:32.105Z,76.20
2023-09-30T03:46:01.897Z,76.30
2023-09-30T03:48:30.134Z,76.40
2023-09-30T03:50:58.638Z,76.40
2023-09-30T03:53:27.609Z,76.40
2023-09-30T03:55:56.856Z,76.20
2023-09-30T03:58:26.471Z,76.30
2023-09-30T04:00:55.241Z,76.40
2023-09-30T04:03:23.871Z,76.30
2023-09-30T04:05:52.180Z,76.20
2023-09-30T04:08:20.560Z,76.10
2023-09-30T04:10:48.837Z,76.20
2023-09-30T04:13:18.003Z,76.30
2023-09-30T04:15:49.855Z,76.20
2023-09-30T04:18:21.205Z,76.30
2023-09-30T04:20:49.555Z,76.30
2023-09-30T04:23:18.258Z,76.20
2023-09-30T04:25:47.503Z,76.20
2023-09-30T04:28:17.018Z,76.20
2023-09-30T04:30:46.859Z,76.20
2023-09-30T04:33:15.737Z,76.10
2023-09-30T04:35:44.353Z,76.10
2023-09-30T04:38:12.677Z,76.20
2023-09-30T04:40:40.940Z,76.20
2023-09-30T04:43:09.142Z,76.20
2023-09-30T04:45:37.384Z,76.10
2023-09-30T04:48:07.434Z,76.10
2023-09-30T04:50:35.737Z,76.20
2023-09-30T04:53:04.297Z,76.10
2023-09-30T04:55:33.041Z,76.20
2023-09-30T04:58:01.246Z,76.10
2023-09-30T05:00:31.672Z,76.20
2023-09-30T05:03:00.829Z,76.30
2023-09-30T05:05:30.864Z,76.20
2023-09-30T05:07:59.684Z,76.10
2023-09-30T05:10:28.364Z,76.30
2023-09-30T05:12:58.494Z,76.10
2023-09-30T05:15:26.849Z,76.40
2023-09-30T05:17:55.140Z,76.10
2023-09-30T05:20:24.215Z,76.10
2023-09-30T05:22:53.836Z,76.20
2023-09-30T05:25:26.934Z,76.20
2023-09-30T05:27:55.434Z,76.20
2023-09-30T05:30:24.142Z,76.20
2023-09-30T05:32:53.678Z,76.20
2023-09-30T05:35:23.524Z,76.30
2023-09-30T05:37:54.356Z,76.20
2023-09-30T05:40:26.000Z,76.20
2023-09-30T05:42:56.271Z,76.20
2023-09-30T05:45:27.488Z,76.30
2023-09-30T05:47:57.466Z,76.20
2023-09-30T05:50:27.635Z,76.10
2023-09-30T05:52:58.530Z,76.10
2023-09-30T05:55:28.131Z,76.20
2023-09-30T05:57:57.025Z,76.20
2023-09-30T06:00:29.751Z,76.30
2023-09-30T06:02:59.407Z,76.30
2023-09-30T06:05:30.921Z,76.30
2023-09-30T06:08:03.905Z,76.40
2023-09-30T06:10:32.578Z,76.30
2023-09-30T06:13:01.018Z,76.30
2023-09-30T06:15:30.309Z,76.40
2023-09-30T06:18:01.234Z,76.40
2023-09-30T06:20:31.827Z,76.40
2023-09-30T06:23:02.580Z,76.50
2023-09-30T06:25:31.753Z,76.60
2023-09-30T06:28:00.236Z,76.60
2023-09-30T06:30:31.554Z,76.60
2023-09-30T06:33:01.886Z,76.70
2023-09-30T06:35:35.681Z,76.70
2023-09-30T06:38:07.577Z,76.70
2023-09-30T06:40:38.964Z,76.70
2023-09-30T06:43:09.544Z,76.70
2023-09-30T06:45:42.624Z,76.80
2023-09-30T06:48:13.665Z,76.90
2023-09-30T06:50:45.583Z,76.90
2023-09-30T06:53:15.327Z,77.10
2023-09-30T06:55:44.221Z,77.00
2023-09-30T06:58:12.925Z,77.00
2023-09-30T07:00:42.424Z,77.00
2023-09-30T07:03:10.892Z,77.20
2023-09-30T07:05:39.886Z,77.20
2023-09-30T07:08:08.116Z,77.30
2023-09-30T07:10:37.808Z,77.40
2023-09-30T07:13:07.817Z,77.50
2023-09-30T07:15:36.243Z,77.50
2023-09-30T07:18:05.067Z,77.50
2023-09-30T07:20:34.082Z,77.60
2023-09-30T07:23:18.158Z,77.60
2023-09-30T07:25:49.753Z,78.30
2023-09-30T07:28:18.131Z,77.50
2023-09-30T07:30:46.718Z,77.60
2023-09-30T07:33:15.173Z,77.70
2023-09-30T07:35:43.492Z,77.70
2023-09-30T07:38:11.870Z,77.70
2023-09-30T07:40:40.335Z,77.80
2023-09-30T07:43:09.959Z,77.80
2023-09-30T07:45:38.685Z,77.70
2023-09-30T07:48:10.471Z,77.80
2023-09-30T07:50:39.032Z,77.70
2023-09-30T07:53:07.309Z,77.80
2023-09-30T07:55:35.483Z,77.80
2023-09-30T07:58:04.398Z,77.90
2023-09-30T08:00:35.232Z,78.00
2023-09-30T08:03:04.013Z,77.90
2023-09-30T08:05:32.423Z,77.90
2023-09-30T08:08:02.647Z,77.80
2023-09-30T08:10:32.824Z,77.90
2023-09-30T08:13:03.504Z,77.90
2023-09-30T08:15:33.250Z,77.90
2023-09-30T08:18:02.263Z,77.90
2023-09-30T08:20:30.720Z,77.90
2023-09-30T08:22:59.696Z,78.00
2023-09-30T08:25:28.191Z,78.10
2023-09-30T08:27:56.479Z,78.10
2023-09-30T08:30:24.731Z,78.10
2023-09-30T08:32:54.401Z,78.10
2023-09-30T08:35:22.714Z,78.00
2023-09-30T08:37:50.920Z,77.90
2023-09-30T08:40:22.884Z,77.90
2023-09-30T08:42:54.975Z,77.90
2023-09-30T08:45:23.760Z,77.80
2023-09-30T08:47:52.699Z,77.80
2023-09-30T08:50:23.995Z,77.90
2023-09-30T08:52:53.832Z,77.80
2023-09-30T08:55:22.134Z,77.60
2023-09-30T08:57:52.541Z,77.80
2023-09-30T09:00:22.376Z,77.70
2023-09-30T09:02:52.859Z,77.70
2023-09-30T09:05:22.812Z,77.70
2023-09-30T09:07:51.644Z,77.70
2023-09-30T09:10:20.557Z,77.70
2023-09-30T09:12:58.787Z,77.60
2023-09-30T09:15:28.408Z,77.70
2023-09-30T09:17:57.294Z,77.60
2023-09-30T09:20:27.832Z,77.60
2023-09-30T09:22:57.220Z,77.70
2023-09-30T09:25:26.330Z,77.50
2023-09-30T09:27:56.207Z,77.50
2023-09-30T09:30:26.147Z,77.40
2023-09-30T09:32:55.327Z,77.30
2023-09-30T09:35:24.006Z,77.20
2023-09-30T09:37:59.244Z,77.30
2023-09-30T09:40:29.052Z,77.10
2023-09-30T09:42:57.987Z,77.00
2023-09-30T09:45:27.618Z,76.90
2023-09-30T09:47:57.482Z,76.90
2023-09-30T09:50:26.282Z,76.70
2023-09-30T09:52:57.273Z,76.70
2023-09-30T09:55:28.276Z,76.60
2023-09-30T09:57:56.751Z,76.40
2023-09-30T10:00:27.208Z,76.40
2023-09-30T10:02:55.671Z,76.30
2023-09-30T10:05:24.500Z,76.30
2023-09-30T10:07:55.802Z,76.10
2023-09-30T10:10:27.053Z,76.00
2023-09-30T10:12:55.312Z,76.00
2023-09-30T10:15:42.494Z,75.70
2023-09-30T10:18:15.103Z,75.60
2023-09-30T10:20:49.194Z,75.50
2023-09-30T10:23:28.488Z,75.50
2023-09-30T10:26:19.012Z,75.40
2023-09-30T10:28:49.748Z,75.30
2023-09-30T10:31:20.493Z,75.30
2023-09-30T10:34:23.168Z,74.90
2023-09-30T10:36:53.903Z,74.70
2023-09-30T10:39:58.645Z,74.60
2023-09-30T10:42:52.363Z,74.30
2023-09-30T10:45:47.980Z,74.20
2023-09-30T10:48:38.465Z,74.00
2023-09-30T10:51:22.118Z,73.70
2023-09-30T10:53:53.543Z,73.40
2023-09-30T10:56:22.538Z,73.40
2023-09-30T10:58:53.446Z,73.30
2023-09-30T11:01:23.738Z,73.10
2023-09-30T11:04:00.699Z,73.10
2023-09-30T11:06:29.022Z,72.90
2023-09-30T11:09:00.947Z,72.70
2023-09-30T11:11:51.211Z,72.30
2023-09-30T11:14:27.700Z,71.60
2023-09-30T11:17:00.322Z,71.60
2023-09-30T11:19:31.631Z,71.50
2023-09-30T11:22:00.684Z,71.30
2023-09-30T11:24:30.426Z,71.10
2023-09-30T11:26:58.850Z,70.80
2023-09-30T11:29:28.553Z,70.80
2023-09-30T11:31:56.959Z,70.40
2023-09-30T11:34:34.284Z,70.20
2023-09-30T11:37:03.390Z,69.90
2023-09-30T11:39:32.615Z,69.90
2023-09-30T11:42:02.543Z,69.70
2023-09-30T11:44:32.584Z,69.40
2023-09-30T11:47:06.137Z,69.20
2023-09-30T11:49:36.358Z,68.90
2023-09-30T11:52:08.196Z,68.70
2023-09-30T11:54:40.622Z,68.30
2023-09-30T11:57:11.048Z,68.10
2023-09-30T11:59:42.233Z,67.80
2023-09-30T12:02:14.918Z,67.60
2023-09-30T12:04:44.738Z,67.50
2023-09-30T12:07:14.232Z,67.20
2023-09-30T12:09:42.792Z,67.00
2023-09-30T12:12:12.617Z,66.80
2023-09-30T12:14:42.789Z,66.70
2023-09-30T12:17:13.773Z,66.50
2023-09-30T12:19:43.269Z,67.00
2023-09-30T12:22:12.614Z,66.10
2023-09-30T12:24:41.835Z,65.90
2023-09-30T12:27:10.342Z,65.60
2023-09-30T12:29:39.960Z,65.50
2023-09-30T12:32:11.097Z,65.10
2023-09-30T12:34:39.614Z,64.90
2023-09-30T12:37:08.556Z,64.90
2023-09-30T12:39:37.895Z,64.60
2023-09-30T12:42:10.032Z,64.40
2023-09-30T12:44:39.052Z,64.20
2023-09-30T12:47:08.973Z,64.10
2023-09-30T12:49:37.831Z,64.00
2023-09-30T12:52:06.271Z,63.60
2023-09-30T12:54:35.350Z,63.40
2023-09-30T12:57:03.644Z,63.30
2023-09-30T12:59:32.377Z,63.00
2023-09-30T13:02:00.663Z,62.80
2023-09-30T13:04:30.256Z,62.50
2023-09-30T13:06:58.518Z,62.30
2023-09-30T13:09:27.255Z,62.10
2023-09-30T13:11:55.610Z,61.90
2023-09-30T13:14:23.877Z,61.70
2023-09-30T13:16:52.125Z,61.60
2023-09-30T13:19:22.609Z,61.50
2023-09-30T13:21:54.274Z,61.60
2023-09-30T13:24:22.562Z,61.30
2023-09-30T13:26:53.468Z,61.10
2023-09-30T13:29:21.761Z,61.10
2023-09-30T13:31:50.087Z,61.20
2023-09-30T13:34:19.219Z,60.90
2023-09-30T13:36:47.476Z,60.70
2023-09-30T13:39:18.742Z,60.50
2023-09-30T13:41:48.097Z,60.30
2023-09-30T13:44:16.962Z,60.10
2023-09-30T13:46:45.230Z,59.80
2023-09-30T13:49:13.608Z,59.60
2023-09-30T13:51:41.941Z,59.50
2023-09-30T13:54:10.524Z,59.20
2023-09-30T13:56:40.319Z,58.90
2023-09-30T13:59:10.327Z,58.50
2023-09-30T14:01:42.978Z,58.40
2023-09-30T14:04:11.321Z,58.20
2023-09-30T14:06:39.769Z,58.10
2023-09-30T14:09:21.707Z,58.00
2023-09-30T14:11:59.790Z,57.90
2023-09-30T14:14:28.046Z,57.80
2023-09-30T14:16:56.348Z,57.70
2023-09-30T14:19:25.014Z,57.60
2023-09-30T14:21:53.332Z,57.40
2023-09-30T14:24:21.656Z,57.20
2023-09-30T14:26:49.933Z,57.00
2023-09-30T14:29:19.791Z,56.80
2023-09-30T14:31:48.021Z,56.60
2023-09-30T14:34:16.421Z,56.40
2023-09-30T14:36:44.686Z,56.40
2023-09-30T14:39:15.220Z,56.20
2023-09-30T14:41:44.014Z,56.10
2023-09-30T14:44:13.004Z,56.10
2023-09-30T14:46:43.158Z,55.90
2023-09-30T14:49:11.588Z,55.80
2023-09-30T14:51:40.443Z,55.80
2023-09-30T14:54:09.002Z,55.60
2023-09-30T14:56:37.746Z,55.50
2023-09-30T14:59:06.771Z,55.50
2023-09-30T15:01:35.642Z,55.40
2023-09-30T15:04:07.651Z,55.30
2023-09-30T15:06:37.786Z,55.10
2023-09-30T15:09:06.550Z,55.20
2023-09-30T15:11:34.736Z,55.00
2023-09-30T15:14:03.385Z,55.00
2023-09-30T15:16:32.334Z,55.00
2023-09-30T15:19:00.891Z,54.90
2023-09-30T15:21:30.966Z,54.90
2023-09-30T15:24:00.728Z,54.80
2023-09-30T15:26:29.021Z,54.80
2023-09-30T15:28:57.708Z,54.80
2023-09-30T15:31:29.885Z,54.80
2023-09-30T15:33:58.512Z,54.60
2023-09-30T15:36:27.538Z,54.60
2023-09-30T15:38:57.531Z,54.50
2023-09-30T15:41:26.318Z,54.50
2023-09-30T15:43:54.539Z,55.10
2023-09-30T15:46:23.024Z,54.60
2023-09-30T15:48:51.748Z,54.60
2023-09-30T15:51:20.158Z,54.50
2023-09-30T15:53:48.496Z,54.70
2023-09-30T15:56:18.538Z,54.70
2023-09-30T15:58:46.819Z,54.70
2023-09-30T16:01:15.160Z,54.80
2023-09-30T16:03:44.409Z,54.90
2023-09-30T16:06:12.955Z,54.90
2023-09-30T16:08:41.796Z,55.00
2023-09-30T16:11:10.036Z,55.10
2023-09-30T16:13:39.597Z,55.80
2023-09-30T16:16:08.034Z,55.30
2023-09-30T16:18:36.445Z,55.30
2023-09-30T16:21:04.797Z,55.50
2023-09-30T16:23:33.852Z,55.50
2023-09-30T16:26:02.269Z,55.70
2023-09-30T16:28:31.036Z,55.70
2023-09-30T16:31:04.229Z,55.70
2023-09-30T16:33:35.023Z,55.80
2023-09-30T16:36:06.378Z,55.80
2023-09-30T16:38:34.666Z,56.00
2023-09-30T16:41:03.671Z,56.00
2023-09-30T16:43:32.170Z,56.10
2023-09-30T16:46:06.474Z,56.10
2023-09-30T16:48:35.081Z,56.10
2023-09-30T16:51:04.443Z,56.20
2023-09-30T16:53:32.807Z,56.40
2023-09-30T16:56:04.609Z,56.40
2023-09-30T16:58:33.527Z,56.50
2023-09-30T17:01:02.892Z,56.70
2023-09-30T17:03:32.590Z,56.70
2023-09-30T17:06:01.136Z,56.80
2023-09-30T17:08:29.415Z,57.00
2023-09-30T17:10:57.659Z,57.10
2023-09-30T17:13:26.095Z,57.20
2023-09-30T17:15:54.294Z,57.30
2023-09-30T17:18:22.616Z,57.40
2023-09-30T17:20:54.221Z,57.50
2023-09-30T17:23:23.190Z,57.70
2023-09-30T17:25:51.445Z,57.90
2023-09-30T17:28:19.797Z,58.00
2023-09-30T17:30:48.083Z,58.00
2023-09-30T17:33:16.493Z,58.10
2023-09-30T17:35:44.902Z,58.20
2023-09-30T17:38:14.467Z,58.20
2023-09-30T17:40:42.689Z,58.40
2023-09-30T17:43:10.953Z,58.50
2023-09-30T17:45:39.209Z,58.50
2023-09-30T17:48:09.804Z,58.70
2023-09-30T17:50:41.147Z,58.70
2023-09-30T17:53:09.683Z,58.80
2023-09-30T17:55:40.069Z,58.80
2023-09-30T17:58:08.894Z,59.00
2023-09-30T18:00:39.747Z,59.10
2023-09-30T18:03:08.216Z,59.20
2023-09-30T18:05:36.984Z,59.40
2023-09-30T18:08:05.918Z,59.40
2023-09-30T18:10:34.689Z,59.50
2023-09-30T18:13:04.731Z,59.50
2023-09-30T18:15:33.454Z,59.70
2023-09-30T18:18:11.941Z,59.80
2023-09-30T18:20:42.336Z,59.90
2023-09-30T18:23:10.820Z,60.00
2023-09-30T18:25:40.851Z,60.00
2023-09-30T18:28:10.439Z,60.20
2023-09-30T18:30:41.343Z,60.20
2023-09-30T18:33:10.512Z,60.40
2023-09-30T18:35:40.457Z,60.50
2023-09-30T18:38:09.762Z,60.60
2023-09-30T18:40:39.102Z,60.70
2023-09-30T18:43:11.676Z,60.90
2023-09-30T18:45:42.212Z,60.90
2023-09-30T18:48:11.867Z,61.00
2023-09-30T18:50:41.957Z,61.00
2023-09-30T18:53:11.093Z,61.20
2023-09-30T18:55:41.230Z,61.20
2023-09-30T18:58:10.455Z,61.30
2023-09-30T19:00:43.556Z,61.40
2023-09-30T19:03:12.782Z,61.40
2023-09-30T19:05:42.706Z,61.70
2023-09-30T19:08:13.465Z,61.90
2023-09-30T19:10:42.642Z,61.80
2023-09-30T19:13:11.115Z,62.00
2023-09-30T19:15:41.239Z,62.00
2023-09-30T19:18:09.551Z,62.00
2023-09-30T19:20:38.923Z,62.00
2023-09-30T19:23:09.950Z,62.20
2023-09-30T19:25:39.242Z,62.40
2023-09-30T19:28:07.852Z,62.60
2023-09-30T19:30:36.154Z,62.60
2023-09-30T19:33:06.286Z,62.70
2023-09-30T19:35:34.843Z,62.70
2023-09-30T19:38:03.156Z,62.80
2023-09-30T19:40:31.622Z,62.90
2023-09-30T19:42:59.821Z,63.00
2023-09-30T19:45:28.921Z,63.00
2023-09-30T19:47:57.367Z,63.10
2023-09-30T19:50:28.426Z,63.20
2023-09-30T19:52:57.453Z,63.20
2023-09-30T19:55:25.715Z,63.30
2023-09-30T19:57:54.142Z,63.30
2023-09-30T20:00:23.562Z,63.30
2023-09-30T20:02:51.998Z,63.40
2023-09-30T20:05:20.859Z,63.50
2023-09-30T20:07:51.304Z,63.60
2023-09-30T20:10:19.870Z,63.80
2023-09-30T20:12:48.213Z,63.80
2023-09-30T20:15:16.685Z,63.90
2023-09-30T20:17:45.673Z,63.90
2023-09-30T20:20:17.613Z,63.90
2023-09-30T20:22:45.965Z,64.00
2023-09-30T20:25:16.677Z,64.00
2023-09-30T20:27:45.470Z,64.10
2023-09-30T20:30:14.158Z,64.20
2023-09-30T20:32:43.803Z,64.20
2023-09-30T20:35:12.082Z,64.20
2023-09-30T20:37:40.253Z,64.30
2023-09-30T20:40:11.446Z,64.30
2023-09-30T20:42:42.093Z,64.30
2023-09-30T20:45:11.299Z,64.40
2023-09-30T20:47:39.513Z,64.60
2023-09-30T20:50:08.806Z,64.50
2023-09-30T20:52:37.256Z,64.60
2023-09-30T20:55:06.672Z,64.60
2023-09-30T20:57:35.060Z,64.80
2023-09-30T21:00:06.078Z,64.90
2023-09-30T21:02:34.684Z,64.90
2023-09-30T21:05:03.327Z,64.90
2023-09-30T21:07:31.771Z,65.00
2023-09-30T21:10:00.295Z,65.00
2023-09-30T21:12:28.552Z,65.00
2023-09-30T21:14:57.494Z,65.20
2023-09-30T21:17:27.351Z,65.20
2023-09-30T21:19:55.840Z,65.30
2023-09-30T21:22:24.093Z,65.30
2023-09-30T21:24:52.356Z,65.40
2023-09-30T21:27:20.564Z,65.30
2023-09-30T21:29:49.451Z,65.50
2023-09-30T21:32:18.048Z,65.60
2023-09-30T21:34:47.610Z,65.50
2023-09-30T21:37:15.948Z,65.60
2023-09-30T21:39:44.207Z,65.70
2023-09-30T21:42:12.414Z,65.70
2023-09-30T21:44:40.615Z,65.70
2023-09-30T21:47:08.962Z,65.80
2023-09-30T21:49:37.631Z,65.70
2023-09-30T21:52:08.415Z,65.90
2023-09-30T21:54:36.597Z,66.00
2023-09-30T21:57:04.811Z,66.00
2023-09-30T21:59:32.964Z,66.00
2023-09-30T22:02:01.604Z,66.10
2023-09-30T22:04:30.688Z,66.30
2023-09-30T22:06:59.689Z,66.30
2023-09-30T22:09:29.382Z,66.40
2023-09-30T22:11:57.680Z,66.40
2023-09-30T22:14:26.095Z,66.50
2023-09-30T22:16:54.356Z,66.50
2023-09-30T22:19:22.903Z,66.60
2023-09-30T22:21:51.303Z,66.60
2023-09-30T22:24:19.902Z,66.60
2023-09-30T22:26:49.895Z,66.70
2023-09-30T22:29:18.099Z,66.80
2023-09-30T22:31:46.517Z,66.90
2023-09-30T22:34:15.533Z,66.90
2023-09-30T22:36:46.603Z,66.90
2023-09-30T22:39:16.692Z,67.00
2023-09-30T22:41:46.774Z,67.00
2023-09-30T22:44:16.361Z,67.10
2023-09-30T22:46:45.121Z,67.20
2023-09-30T22:49:13.469Z,67.20
2023-09-30T22:51:41.868Z,67.30
2023-09-30T22:54:11.107Z,67.40
2023-09-30T22:56:39.368Z,67.40
2023-09-30T22:59:08.600Z,67.50
2023-09-30T23:01:38.377Z,67.60
2023-09-30T23:04:10.310Z,67.60
2023-09-30T23:06:39.506Z,67.70
2023-09-30T23:09:08.504Z,67.70
2023-09-30T23:11:37.474Z,67.70
2023-09-30T23:14:06.425Z,67.90
2023-09-30T23:16:35.473Z,68.00
2023-09-30T23:19:07.504Z,68.00
2023-09-30T23:21:37.677Z,68.00
2023-09-30T23:24:07.699Z,68.10
2023-09-30T23:26:37.629Z,68.10
2023-09-30T23:29:09.335Z,68.20
2023-09-30T23:31:41.944Z,68.20
2023-09-30T23:34:14.018Z,68.20
2023-09-30T23:36:45.100Z,68.20
2023-09-30T23:39:13.517Z,68.20
2023-09-30T23:41:46.155Z,68.20
2023-09-30T23:44:16.897Z,68.30
2023-09-30T23:46:46.663Z,68.40
2023-09-30T23:49:16.740Z,68.50
2023-09-30T23:51:45.979Z,68.60
2023-09-30T23:54:15.384Z,68.60
2023-09-30T23:56:44.398Z,68.60
2023-09-30T23:59:13.590Z,68.60
